createdAt,value
2022-09-07T00:01:35.246Z,4.20
2022-09-07T00:04:02.175Z,3.92
2022-09-07T00:06:29.324Z,4.32
2022-09-07T00:08:57.407Z,4.32
2022-09-07T00:11:24.028Z,4.20
2022-09-07T00:13:50.734Z,4.57
2022-09-07T00:16:19.599Z,4.45
2022-09-07T00:18:46.684Z,4.50
2022-09-07T00:21:15.297Z,4.53
2022-09-07T00:23:41.917Z,4.40
2022-09-07T00:26:12.332Z,4.97
2022-09-07T00:28:39.440Z,4.50
2022-09-07T00:31:10.899Z,4.50
2022-09-07T00:33:37.592Z,4.05
2022-09-07T00:36:04.515Z,4.30
2022-09-07T00:38:31.302Z,4.57
2022-09-07T00:40:57.989Z,4.25
2022-09-07T00:43:35.072Z,4.40
2022-09-07T00:46:02.439Z,4.50
2022-09-07T00:48:34.427Z,4.60
2022-09-07T00:51:05.523Z,4.20
2022-09-07T00:53:36.809Z,4.78
2022-09-07T00:56:05.294Z,4.85
2022-09-07T00:58:36.265Z,4.90
2022-09-07T01:01:03.702Z,4.25
2022-09-07T01:03:33.987Z,4.97
2022-09-07T01:06:05.764Z,4.65
2022-09-07T01:08:32.888Z,4.63
2022-09-07T01:11:00.589Z,4.50
2022-09-07T01:13:27.440Z,4.87
2022-09-07T01:16:03.777Z,4.45
2022-09-07T01:18:42.745Z,5.03
2022-09-07T01:21:21.328Z,4.35
2022-09-07T01:24:24.292Z,5.03
2022-09-07T01:27:41.342Z,4.07
2022-09-07T01:33:01.836Z,4.78
2022-09-07T01:35:35.498Z,4.85
2022-09-07T01:38:09.576Z,5.30
2022-09-07T01:40:45.018Z,5.00
2022-09-07T01:43:18.323Z,5.20
2022-09-07T01:45:48.042Z,4.83
2022-09-07T01:48:18.317Z,5.43
2022-09-07T01:50:49.942Z,5.47
2022-09-07T01:53:22.331Z,4.93
2022-09-07T01:55:53.094Z,5.13
2022-09-07T01:58:24.858Z,4.73
2022-09-07T02:00:56.410Z,4.90
2022-09-07T02:03:30.027Z,5.53
2022-09-07T02:06:00.872Z,5.38
2022-09-07T02:08:31.861Z,5.35
2022-09-07T02:11:04.481Z,5.65
2022-09-07T02:13:35.131Z,5.43
2022-09-07T02:16:07.450Z,6.13
2022-09-07T02:18:38.407Z,5.80
2022-09-07T02:21:08.384Z,6.03
2022-09-07T02:23:40.586Z,5.43
2022-09-07T02:26:13.041Z,6.22
2022-09-07T02:28:40.235Z,5.78
2022-09-07T02:31:08.529Z,6.05
2022-09-07T02:33:35.544Z,6.28
2022-09-07T02:36:03.019Z,6.00
2022-09-07T02:38:30.079Z,6.33
2022-09-07T02:41:00.850Z,4.18
2022-09-07T02:43:30.009Z,3.58
2022-09-07T02:46:16.877Z,3.60
2022-09-07T02:48:53.114Z,3.30
2022-09-07T02:51:31.548Z,3.08
2022-09-07T02:54:16.679Z,2.90
2022-09-07T02:56:57.236Z,3.22
2022-09-07T02:59:36.982Z,3.35
2022-09-07T03:02:10.669Z,3.20
2022-09-07T03:04:44.591Z,2.60
2022-09-07T03:07:15.355Z,3.10
2022-09-07T03:09:45.769Z,2.90
2022-09-07T03:12:13.000Z,3.00
2022-09-07T03:14:40.106Z,2.97
2022-09-07T03:17:08.612Z,2.78
2022-09-07T03:19:35.328Z,3.00
2022-09-07T03:22:02.076Z,3.03
2022-09-07T03:24:28.794Z,3.20
2022-09-07T03:26:55.921Z,2.83
2022-09-07T03:29:22.742Z,3.17
2022-09-07T03:31:49.568Z,3.10
2022-09-07T03:34:17.503Z,3.65
2022-09-07T03:36:44.158Z,3.07
2022-09-07T03:39:12.435Z,3.03
2022-09-07T03:41:39.051Z,2.92
2022-09-07T03:44:06.894Z,3.25
2022-09-07T03:46:34.525Z,2.70
2022-09-07T03:49:01.191Z,3.20
2022-09-07T03:51:29.187Z,2.93
2022-09-07T03:53:55.798Z,2.97
2022-09-07T03:56:24.149Z,3.33
2022-09-07T03:58:53.160Z,3.10
2022-09-07T04:01:21.963Z,2.70
2022-09-07T04:03:49.095Z,2.88
2022-09-07T04:06:16.603Z,3.23
2022-09-07T04:08:44.627Z,2.90
2022-09-07T04:11:13.601Z,2.75
2022-09-07T04:13:40.617Z,3.08
2022-09-07T04:16:12.134Z,3.00
2022-09-07T04:18:38.921Z,3.47
2022-09-07T04:21:05.952Z,3.00
2022-09-07T04:23:32.602Z,2.93
2022-09-07T04:26:00.702Z,3.08
2022-09-07T04:28:27.333Z,2.83
2022-09-07T04:30:54.121Z,3.35
2022-09-07T04:33:20.750Z,3.10
2022-09-07T04:35:47.360Z,3.00
2022-09-07T04:38:16.021Z,3.20
2022-09-07T04:40:42.732Z,3.60
2022-09-07T04:43:10.925Z,3.10
2022-09-07T04:45:37.759Z,3.03
2022-09-07T04:48:05.438Z,3.10
2022-09-07T04:50:32.509Z,3.10
2022-09-07T04:52:59.220Z,2.60
2022-09-07T04:55:25.969Z,2.90
2022-09-07T04:57:52.582Z,2.65
2022-09-07T05:00:20.675Z,3.20
2022-09-07T05:02:47.337Z,3.10
2022-09-07T05:05:14.465Z,3.27
2022-09-07T05:07:41.054Z,2.70
2022-09-07T05:10:08.665Z,2.90
2022-09-07T05:12:35.278Z,3.10
2022-09-07T05:15:01.904Z,3.17
2022-09-07T05:17:29.900Z,2.73
2022-09-07T05:19:56.637Z,2.87
2022-09-07T05:22:23.455Z,3.10
2022-09-07T05:24:50.033Z,3.10
2022-09-07T05:27:16.755Z,2.83
2022-09-07T05:32:31.345Z,2.75
2022-09-07T05:34:57.940Z,3.20
2022-09-07T05:37:24.590Z,2.75
2022-09-07T05:39:51.338Z,2.90
2022-09-07T05:42:18.098Z,3.10
2022-09-07T05:44:45.336Z,3.13
2022-09-07T05:47:12.814Z,2.63
2022-09-07T05:49:40.782Z,2.80
2022-09-07T05:52:07.497Z,2.83
2022-09-07T05:54:34.133Z,3.00
2022-09-07T05:57:00.875Z,2.88
2022-09-07T05:59:27.503Z,3.05
2022-09-07T06:01:54.444Z,3.00
2022-09-07T06:04:21.103Z,2.67
2022-09-07T06:07:11.020Z,2.92
2022-09-07T06:12:23.196Z,2.72
2022-09-07T06:14:49.776Z,2.92
2022-09-07T06:17:16.490Z,2.95
2022-09-07T06:19:43.096Z,2.77
2022-09-07T06:22:11.083Z,3.40
2022-09-07T06:24:37.781Z,2.92
2022-09-07T06:27:04.395Z,3.20
2022-09-07T06:29:31.007Z,3.20
2022-09-07T06:34:44.188Z,3.10
2022-09-07T06:37:12.428Z,3.30
2022-09-07T06:39:39.145Z,3.00
2022-09-07T06:42:06.013Z,2.83
2022-09-07T06:44:32.644Z,2.88
2022-09-07T06:47:02.574Z,2.92
2022-09-07T06:49:29.521Z,2.90
2022-09-07T06:51:56.248Z,2.90
2022-09-07T06:57:10.822Z,2.50
2022-09-07T06:59:37.903Z,2.80
2022-09-07T07:02:05.524Z,2.80
2022-09-07T07:04:34.176Z,3.30
2022-09-07T07:07:04.658Z,2.55
2022-09-07T07:09:32.667Z,2.33
2022-09-07T07:11:59.275Z,2.80
2022-09-07T07:14:26.389Z,2.80
2022-09-07T07:16:53.529Z,2.80
2022-09-07T07:19:20.253Z,2.80
2022-09-07T07:22:13.984Z,3.03
2022-09-07T07:24:34.907Z,2.90
2022-09-07T07:27:01.496Z,2.88
2022-09-07T07:29:28.433Z,3.13
2022-09-07T07:31:55.090Z,2.60
2022-09-07T07:34:21.916Z,3.10
2022-09-07T07:36:48.605Z,2.70
2022-09-07T07:42:05.550Z,2.72
2022-09-07T07:44:32.611Z,2.70
2022-09-07T07:46:59.467Z,2.70
2022-09-07T07:49:26.171Z,2.60
2022-09-07T07:54:40.305Z,2.70
2022-09-07T07:57:08.641Z,2.78
2022-09-07T07:59:35.635Z,2.80
2022-09-07T08:02:02.335Z,2.90
2022-09-07T08:04:28.931Z,2.60
2022-09-07T08:06:55.466Z,2.40
2022-09-07T08:09:22.036Z,2.80
2022-09-07T08:11:48.642Z,2.95
2022-09-07T08:14:16.586Z,2.40
2022-09-07T08:16:43.399Z,2.67
2022-09-07T08:19:09.956Z,2.97
2022-09-07T08:21:36.505Z,2.40
2022-09-07T08:24:03.245Z,2.50
2022-09-07T08:26:30.034Z,2.60
2022-09-07T08:28:56.733Z,2.33
2022-09-07T08:31:24.755Z,3.10
2022-09-07T08:33:51.291Z,2.97
2022-09-07T08:36:19.759Z,2.60
2022-09-07T08:38:47.261Z,2.55
2022-09-07T08:41:46.085Z,2.50
2022-09-07T08:44:19.443Z,2.50
2022-09-07T08:46:52.422Z,1.98
2022-09-07T08:49:23.977Z,1.90
2022-09-07T08:51:56.942Z,2.13
2022-09-07T08:54:23.599Z,1.80
2022-09-07T08:59:43.042Z,1.95
2022-09-07T09:02:35.106Z,2.40
2022-09-07T09:05:19.807Z,2.37
2022-09-07T09:08:03.487Z,2.40
2022-09-07T09:10:40.513Z,2.00
2022-09-07T09:13:15.713Z,2.22
2022-09-07T09:15:53.265Z,2.08
2022-09-07T09:18:46.922Z,1.95
2022-09-07T09:21:15.481Z,1.87
2022-09-07T09:23:43.947Z,2.28
2022-09-07T09:26:14.169Z,1.80
2022-09-07T09:28:41.014Z,1.58
2022-09-07T09:31:16.879Z,1.90
2022-09-07T09:34:04.832Z,1.57
2022-09-07T09:36:34.224Z,2.17
2022-09-07T09:39:00.891Z,1.80
2022-09-07T09:41:36.162Z,1.88
2022-09-07T09:44:03.343Z,1.98
2022-09-07T09:46:32.566Z,2.17
2022-09-07T09:49:03.433Z,2.07
2022-09-07T09:54:24.699Z,2.03
2022-09-07T09:56:51.714Z,2.20
2022-09-07T10:05:33.279Z,2.30
2022-09-07T10:08:00.116Z,2.33
2022-09-07T10:10:28.149Z,2.28
2022-09-07T10:12:55.648Z,2.10
2022-09-07T10:15:29.037Z,2.03
2022-09-07T10:17:56.287Z,2.03
2022-09-07T10:20:38.209Z,1.90
2022-09-07T10:23:06.312Z,2.10
2022-09-07T10:25:34.803Z,2.05
2022-09-07T10:28:13.599Z,2.10
2022-09-07T10:30:55.372Z,2.10
2022-09-07T10:33:28.696Z,1.90
2022-09-07T10:36:03.596Z,2.10
2022-09-07T10:38:37.352Z,2.00
2022-09-07T10:41:06.164Z,2.20
2022-09-07T10:43:41.848Z,2.00
2022-09-07T10:49:24.384Z,2.10
2022-09-07T10:52:04.148Z,1.70
2022-09-07T10:54:39.089Z,2.22
2022-09-07T10:57:23.008Z,2.00
2022-09-07T11:00:11.119Z,2.20
2022-09-07T11:05:53.308Z,2.17
2022-09-07T11:08:29.568Z,2.33
2022-09-07T11:11:01.669Z,2.10
2022-09-07T11:13:40.976Z,2.08
2022-09-07T11:22:14.453Z,2.10
2022-09-07T11:25:28.746Z,1.90
2022-09-07T11:27:40.610Z,2.65
2022-09-07T11:30:17.658Z,2.10
2022-09-07T11:32:51.428Z,2.00
2022-09-07T11:35:24.680Z,2.30
2022-09-07T11:37:54.131Z,1.93
2022-09-07T11:40:26.976Z,2.00
2022-09-07T11:42:59.161Z,2.20
2022-09-07T11:45:34.234Z,2.05
2022-09-07T11:48:07.700Z,2.15
2022-09-07T11:50:38.506Z,2.20
2022-09-07T11:53:09.395Z,1.98
2022-09-07T11:55:41.453Z,2.20
2022-09-07T11:58:39.642Z,2.00
2022-09-07T12:01:20.265Z,2.20
2022-09-07T12:04:04.983Z,1.77
2022-09-07T12:07:03.360Z,1.77
2022-09-07T12:09:48.989Z,2.00
2022-09-07T12:12:30.071Z,1.83
2022-09-07T12:15:11.267Z,2.55
2022-09-07T12:17:50.221Z,2.30
2022-09-07T12:20:18.095Z,2.00
2022-09-07T12:23:04.219Z,2.17
2022-09-07T12:25:32.466Z,1.92
2022-09-07T12:28:01.172Z,2.20
2022-09-07T12:30:58.781Z,2.00
2022-09-07T12:33:30.870Z,1.88
2022-09-07T12:35:58.580Z,2.10
2022-09-07T12:39:15.101Z,2.70
2022-09-07T12:42:31.843Z,2.40
2022-09-07T12:44:39.140Z,2.30
2022-09-07T12:47:27.867Z,2.20
2022-09-07T12:50:23.611Z,2.15
2022-09-07T12:53:16.536Z,2.17
2022-09-07T12:56:20.736Z,2.38
2022-09-07T12:58:59.115Z,2.17
2022-09-07T13:01:45.305Z,1.80
2022-09-07T13:04:43.081Z,2.03
2022-09-07T13:07:27.821Z,1.90
2022-09-07T13:09:56.769Z,1.88
2022-09-07T13:15:50.204Z,2.50
2022-09-07T13:18:40.972Z,1.90
2022-09-07T13:21:39.451Z,2.03
2022-09-07T13:24:48.468Z,2.20
2022-09-07T13:27:32.756Z,2.00
2022-09-07T13:30:02.830Z,1.85
2022-09-07T13:35:22.693Z,2.10
2022-09-07T13:37:54.031Z,1.75
2022-09-07T13:40:25.338Z,1.70
2022-09-07T13:42:54.022Z,1.90
2022-09-07T13:45:29.860Z,1.55
2022-09-07T13:48:07.284Z,1.60
2022-09-07T13:50:45.825Z,1.90
2022-09-07T13:53:37.809Z,1.77
2022-09-07T13:56:16.100Z,1.73
2022-09-07T13:58:46.362Z,1.65
2022-09-07T14:01:17.916Z,1.70
2022-09-07T14:03:48.992Z,1.65
2022-09-07T14:06:28.298Z,1.37
2022-09-07T14:08:56.796Z,1.80
2022-09-07T14:11:25.443Z,1.77
2022-09-07T14:14:09.920Z,1.50
2022-09-07T14:16:37.075Z,1.70
2022-09-07T14:19:10.249Z,1.40
2022-09-07T14:21:38.608Z,1.60
2022-09-07T14:24:20.372Z,1.45
2022-09-07T14:26:47.863Z,1.50
2022-09-07T14:29:23.020Z,1.55
2022-09-07T14:31:50.084Z,1.37
2022-09-07T14:34:19.189Z,1.60
2022-09-07T14:36:47.343Z,1.73
2022-09-07T14:39:16.114Z,1.50
2022-09-07T14:41:44.135Z,1.90
2022-09-07T14:44:27.308Z,1.50
2022-09-07T14:46:56.695Z,1.80
2022-09-07T14:49:24.970Z,1.60
2022-09-07T14:51:54.500Z,2.03
2022-09-07T14:54:25.141Z,1.58
2022-09-07T14:57:03.223Z,1.40
2022-09-07T14:59:40.646Z,1.42
2022-09-07T15:02:35.475Z,1.70
2022-09-07T15:05:26.888Z,1.60
2022-09-07T15:07:56.651Z,1.70
2022-09-07T15:10:33.549Z,1.43
2022-09-07T15:13:01.958Z,1.40
2022-09-07T15:15:31.200Z,1.58
2022-09-07T15:18:05.811Z,1.30
2022-09-07T15:20:39.731Z,1.30
2022-09-07T15:23:11.115Z,1.40
2022-09-07T15:25:38.550Z,1.00
2022-09-07T15:28:05.926Z,1.30
2022-09-07T15:30:33.583Z,1.50
2022-09-07T15:33:00.263Z,1.58
2022-09-07T15:35:26.787Z,1.30
2022-09-07T15:38:01.550Z,1.20
2022-09-07T15:40:56.425Z,1.40
2022-09-07T15:43:28.506Z,1.20
2022-09-07T15:45:55.279Z,1.17
2022-09-07T15:48:24.997Z,1.27
2022-09-07T15:51:00.984Z,1.30
2022-09-07T15:56:17.244Z,1.35
2022-09-07T15:58:50.765Z,1.60
2022-09-07T16:04:04.618Z,1.73
2022-09-07T16:06:31.373Z,1.80
2022-09-07T16:08:57.903Z,1.58
2022-09-07T16:11:27.208Z,1.85
2022-09-07T16:14:01.705Z,1.60
2022-09-07T16:17:26.550Z,1.50
2022-09-07T16:19:20.096Z,1.90
2022-09-07T16:21:46.895Z,2.00
2022-09-07T16:24:13.430Z,1.70
2022-09-07T16:26:41.288Z,1.73
2022-09-07T16:29:08.017Z,1.93
2022-09-07T16:31:35.068Z,1.60
2022-09-07T16:34:02.193Z,2.00
2022-09-07T16:36:28.805Z,1.58
2022-09-07T16:38:56.899Z,1.90
2022-09-07T16:41:25.374Z,1.43
2022-09-07T16:43:54.533Z,1.50
2022-09-07T16:46:23.633Z,1.48
2022-09-07T16:48:50.860Z,1.80
2022-09-07T16:51:18.920Z,1.65
2022-09-07T16:53:45.472Z,1.60
2022-09-07T16:56:13.646Z,1.90
2022-09-07T16:58:42.587Z,1.60
2022-09-07T17:01:12.152Z,1.60
2022-09-07T17:03:39.528Z,1.55
2022-09-07T17:06:08.873Z,1.35
2022-09-07T17:08:37.376Z,1.60
2022-09-07T17:11:05.886Z,1.70
2022-09-07T17:13:33.594Z,1.70
2022-09-07T17:16:03.701Z,1.80
2022-09-07T17:21:19.997Z,1.73
2022-09-07T17:23:54.422Z,1.80
2022-09-07T17:26:21.844Z,1.43
2022-09-07T17:28:50.405Z,1.70
2022-09-07T17:34:06.927Z,1.77
2022-09-07T17:36:33.414Z,1.80
2022-09-07T17:41:48.591Z,1.55
2022-09-07T17:44:15.576Z,1.58
2022-09-07T17:46:42.124Z,1.50
2022-09-07T17:49:10.549Z,1.70
2022-09-07T17:51:37.095Z,1.90
2022-09-07T17:54:12.956Z,1.80
2022-09-07T17:56:40.579Z,1.92
2022-09-07T18:01:54.789Z,2.22
2022-09-07T18:04:23.358Z,2.00
2022-09-07T18:06:50.524Z,2.30
2022-09-07T18:09:18.829Z,2.08
2022-09-07T18:11:46.758Z,2.10
2022-09-07T18:14:15.118Z,1.90
2022-09-07T18:16:43.678Z,1.98
2022-09-07T18:19:11.868Z,2.00
2022-09-07T18:21:41.315Z,1.73
2022-09-07T18:24:13.450Z,1.90
2022-09-07T18:26:40.557Z,1.70
2022-09-07T18:29:25.855Z,1.80
2022-09-07T18:31:54.983Z,1.60
2022-09-07T18:34:21.671Z,1.60
2022-09-07T18:36:49.829Z,1.60
2022-09-07T18:39:16.607Z,1.75
2022-09-07T18:41:43.136Z,1.63
2022-09-07T18:46:56.272Z,1.87
2022-09-07T18:49:23.536Z,1.63
2022-09-07T18:54:39.286Z,1.63
2022-09-07T18:57:06.979Z,1.52
2022-09-07T18:59:33.870Z,1.60
2022-09-07T19:02:04.370Z,1.63
2022-09-07T19:07:20.759Z,1.77
2022-09-07T19:09:47.550Z,1.90
2022-09-07T19:12:14.088Z,1.60
2022-09-07T19:14:40.638Z,1.60
2022-09-07T19:17:07.139Z,1.80
2022-09-07T19:19:33.656Z,1.80
2022-09-07T19:22:00.192Z,1.73
2022-09-07T19:24:28.302Z,1.83
2022-09-07T19:27:00.007Z,1.90
2022-09-07T19:29:27.508Z,1.53
2022-09-07T19:31:54.476Z,2.00
2022-09-07T19:34:21.094Z,2.00
2022-09-07T19:36:47.638Z,1.75
2022-09-07T19:39:14.422Z,1.88
2022-09-07T19:41:42.360Z,1.73
2022-09-07T19:44:09.070Z,1.93
2022-09-07T19:46:35.717Z,1.63
2022-09-07T19:49:02.240Z,2.10
2022-09-07T19:51:29.118Z,2.00
2022-09-07T19:53:57.241Z,1.92
2022-09-07T19:56:23.902Z,1.80
2022-09-07T19:58:51.752Z,1.90
2022-09-07T20:01:20.484Z,2.15
2022-09-07T20:03:54.876Z,2.47
2022-09-07T20:06:21.446Z,2.10
2022-09-07T20:08:48.740Z,2.15
2022-09-07T20:11:16.539Z,1.97
2022-09-07T20:13:43.843Z,2.33
2022-09-07T20:16:13.586Z,2.00
2022-09-07T20:18:40.658Z,2.30
2022-09-07T20:21:09.002Z,2.22
2022-09-07T20:23:35.982Z,2.50
2022-09-07T20:26:04.771Z,2.23
2022-09-07T20:28:32.220Z,2.27
2022-09-07T20:30:58.729Z,2.05
2022-09-07T20:33:26.751Z,2.38
2022-09-07T20:35:53.281Z,1.90
2022-09-07T20:38:19.913Z,2.00
2022-09-07T20:40:53.097Z,2.33
2022-09-07T20:43:20.121Z,2.30
2022-09-07T20:45:46.675Z,2.28
2022-09-07T20:48:13.698Z,2.20
2022-09-07T20:50:41.948Z,2.10
2022-09-07T20:53:08.576Z,2.15
2022-09-07T20:55:35.343Z,2.20
2022-09-07T20:58:01.879Z,2.60
2022-09-07T21:00:28.601Z,2.42
2022-09-07T21:02:56.392Z,2.20
2022-09-07T21:05:23.048Z,2.30
2022-09-07T21:07:50.880Z,2.50
2022-09-07T21:10:17.437Z,1.98
2022-09-07T21:12:43.947Z,2.13
2022-09-07T21:15:10.854Z,2.40
2022-09-07T21:17:37.373Z,2.42
2022-09-07T21:20:04.622Z,2.60
2022-09-07T21:22:31.567Z,2.92
2022-09-07T21:24:59.397Z,2.53
2022-09-07T21:27:26.000Z,2.53
2022-09-07T21:29:52.494Z,2.30
2022-09-07T21:32:19.120Z,2.72
2022-09-07T21:34:45.605Z,2.42
2022-09-07T21:37:12.222Z,2.33
2022-09-07T21:39:38.821Z,2.17
2022-09-07T21:42:06.836Z,2.70
2022-09-07T21:44:33.327Z,2.08
2022-09-07T21:46:59.904Z,2.42
2022-09-07T21:49:26.461Z,2.33
2022-09-07T21:51:52.951Z,2.58
2022-09-07T21:54:19.474Z,2.90
2022-09-07T21:56:46.859Z,2.17
2022-09-07T21:59:15.072Z,2.20
2022-09-07T22:01:41.648Z,2.40
2022-09-07T22:04:08.306Z,2.78
2022-09-07T22:06:34.858Z,2.63
2022-09-07T22:09:02.084Z,2.10
2022-09-07T22:11:29.715Z,2.50
2022-09-07T22:13:57.522Z,2.40
2022-09-07T22:16:25.667Z,2.40
2022-09-07T22:18:52.305Z,2.65
2022-09-07T22:21:21.183Z,2.80
2022-09-07T22:23:49.910Z,2.47
2022-09-07T22:26:20.074Z,2.50
2022-09-07T22:28:47.124Z,2.40
2022-09-07T22:31:15.563Z,2.40
2022-09-07T22:33:44.505Z,2.60
2022-09-07T22:36:14.028Z,2.47
2022-09-07T22:38:41.332Z,2.50
2022-09-07T22:41:08.998Z,2.35
2022-09-07T22:43:35.898Z,2.30
2022-09-07T22:46:02.821Z,2.55
2022-09-07T22:48:30.016Z,2.50
2022-09-07T22:50:59.219Z,2.70
2022-09-07T22:53:26.224Z,2.58
2022-09-07T22:55:52.943Z,2.60
2022-09-07T22:58:19.487Z,2.80
2022-09-07T23:00:46.407Z,2.75
2022-09-07T23:03:13.048Z,2.85
2022-09-07T23:05:39.777Z,2.63
2022-09-07T23:08:07.776Z,3.10
2022-09-07T23:10:35.525Z,2.90
2022-09-07T23:13:02.459Z,2.70
2022-09-07T23:15:29.657Z,2.50
2022-09-07T23:17:56.255Z,3.03
2022-09-07T23:20:22.893Z,2.88
2022-09-07T23:22:49.570Z,2.78
2022-09-07T23:25:17.557Z,2.60
2022-09-07T23:27:44.140Z,2.93
2022-09-07T23:30:12.263Z,2.97
2022-09-07T23:32:38.831Z,2.80
2022-09-07T23:35:06.046Z,2.70
2022-09-07T23:37:32.601Z,2.85
2022-09-07T23:39:59.386Z,3.20
2022-09-07T23:42:27.461Z,2.97
2022-09-07T23:44:54.004Z,2.75
2022-09-07T23:47:20.691Z,2.78
2022-09-07T23:49:47.242Z,3.13
2022-09-07T23:52:13.819Z,2.90
2022-09-07T23:54:40.407Z,3.23
2022-09-07T23:57:06.966Z,2.87
2022-09-07T23:59:34.901Z,3.33
